sensor_id;sensor_type;location;lat;lon;timestamp;temperature;humidity
421;DHT22;63667;49.046;8.468;2022-09-20T00:01:27;8.80;99.60
421;DHT22;63667;49.046;8.468;2022-09-20T00:03:57;8.80;99.60
421;DHT22;63667;49.046;8.468;2022-09-20T00:06:29;8.70;99.60
421;DHT22;63667;49.046;8.468;2022-09-20T00:08:57;8.80;99.60
421;DHT22;63667;49.046;8.468;2022-09-20T00:11:26;8.90;99.60
421;DHT22;63667;49.046;8.468;2022-09-20T00:13:56;8.90;99.60
421;DHT22;63667;49.046;8.468;2022-09-20T00:16:26;9.00;99.60
421;DHT22;63667;49.046;8.468;2022-09-20T00:18:55;9.10;99.60
421;DHT22;63667;49.046;8.468;2022-09-20T00:21:28;9.10;99.60
421;DHT22;63667;49.046;8.468;2022-09-20T00:23:55;9.00;99.60
421;DHT22;63667;49.046;8.468;2022-09-20T00:26:24;8.90;99.60
421;DHT22;63667;49.046;8.468;2022-09-20T00:28:51;9.10;99.60
421;DHT22;63667;49.046;8.468;2022-09-20T00:31:19;9.00;99.60
421;DHT22;63667;49.046;8.468;2022-09-20T00:33:46;9.10;99.60
421;DHT22;63667;49.046;8.468;2022-09-20T00:36:31;9.20;99.60
421;DHT22;63667;49.046;8.468;2022-09-20T00:39:00;9.20;99.60
421;DHT22;63667;49.046;8.468;2022-09-20T00:41:29;9.20;99.60
421;DHT22;63667;49.046;8.468;2022-09-20T00:43:57;9.40;99.60
421;DHT22;63667;49.046;8.468;2022-09-20T00:46:28;9.40;99.60
421;DHT22;63667;49.046;8.468;2022-09-20T00:49:19;9.30;99.60
421;DHT22;63667;49.046;8.468;2022-09-20T00:51:53;9.30;99.60
421;DHT22;63667;49.046;8.468;2022-09-20T00:54:23;9.40;99.60
421;DHT22;63667;49.046;8.468;2022-09-20T00:56:55;9.40;99.60
421;DHT22;63667;49.046;8.468;2022-09-20T00:59:26;9.30;99.60
421;DHT22;63667;49.046;8.468;2022-09-20T01:02:03;9.30;99.60
421;DHT22;63667;49.046;8.468;2022-09-20T01:04:34;9.40;99.60
421;DHT22;63667;49.046;8.468;2022-09-20T01:07:02;9.40;99.60
421;DHT22;63667;49.046;8.468;2022-09-20T01:09:32;9.40;99.60
421;DHT22;63667;49.046;8.468;2022-09-20T01:12:04;9.40;99.60
421;DHT22;63667;49.046;8.468;2022-09-20T01:14:33;9.40;99.60
421;DHT22;63667;49.046;8.468;2022-09-20T01:17:03;9.40;99.60
421;DHT22;63667;49.046;8.468;2022-09-20T01:19:36;9.30;99.60
421;DHT22;63667;49.046;8.468;2022-09-20T01:22:20;9.40;99.60
421;DHT22;63667;49.046;8.468;2022-09-20T01:25:01;9.40;99.60
421;DHT22;63667;49.046;8.468;2022-09-20T01:27:47;9.40;99.60
421;DHT22;63667;49.046;8.468;2022-09-20T01:30:21;9.40;99.60
421;DHT22;63667;49.046;8.468;2022-09-20T01:33:06;9.40;99.60
421;DHT22;63667;49.046;8.468;2022-09-20T01:35:43;9.30;99.60
421;DHT22;63667;49.046;8.468;2022-09-20T01:38:43;9.40;99.60
421;DHT22;63667;49.046;8.468;2022-09-20T01:58:17;9.50;99.60
421;DHT22;63667;49.046;8.468;2022-09-20T02:01:34;9.50;99.60
421;DHT22;63667;49.046;8.468;2022-09-20T02:09:52;9.70;99.60
421;DHT22;63667;49.046;8.468;2022-09-20T02:12:41;9.80;99.60
421;DHT22;63667;49.046;8.468;2022-09-20T02:26:46;10.00;99.60
421;DHT22;63667;49.046;8.468;2022-09-20T02:37:30;10.10;99.60
421;DHT22;63667;49.046;8.468;2022-09-20T02:46:09;10.10;99.60
421;DHT22;63667;49.046;8.468;2022-09-20T02:49:06;10.20;99.60
421;DHT22;63667;49.046;8.468;2022-09-20T02:51:40;10.30;99.60
421;DHT22;63667;49.046;8.468;2022-09-20T03:05:29;10.30;99.60
421;DHT22;63667;49.046;8.468;2022-09-20T03:10:50;10.20;99.60
421;DHT22;63667;49.046;8.468;2022-09-20T03:30:29;10.40;99.60
421;DHT22;63667;49.046;8.468;2022-09-20T03:41:40;10.40;99.60
421;DHT22;63667;49.046;8.468;2022-09-20T03:55:41;10.10;99.60
421;DHT22;63667;49.046;8.468;2022-09-20T04:11:49;9.60;99.60
421;DHT22;63667;49.046;8.468;2022-09-20T04:14:46;9.70;99.60
421;DHT22;63667;49.046;8.468;2022-09-20T04:17:46;9.90;99.60
421;DHT22;63667;49.046;8.468;2022-09-20T04:20:42;9.90;99.60
421;DHT22;63667;49.046;8.468;2022-09-20T04:23:46;10.10;99.60
421;DHT22;63667;49.046;8.468;2022-09-20T04:26:26;10.10;99.60
421;DHT22;63667;49.046;8.468;2022-09-20T04:34:45;9.70;99.60
421;DHT22;63667;49.046;8.468;2022-09-20T04:37:35;9.60;99.60
421;DHT22;63667;49.046;8.468;2022-09-20T04:43:41;9.30;99.60
421;DHT22;63667;49.046;8.468;2022-09-20T04:54:53;9.30;99.60
421;DHT22;63667;49.046;8.468;2022-09-20T04:57:59;9.10;99.60
421;DHT22;63667;49.046;8.468;2022-09-20T05:00:44;9.00;99.60
421;DHT22;63667;49.046;8.468;2022-09-20T05:17:25;9.10;99.60
421;DHT22;63667;49.046;8.468;2022-09-20T05:20:33;9.10;99.60
421;DHT22;63667;49.046;8.468;2022-09-20T05:26:39;9.10;99.60
421;DHT22;63667;49.046;8.468;2022-09-20T05:29:01;9.10;99.60
421;DHT22;63667;49.046;8.468;2022-09-20T05:32:21;9.10;99.60
421;DHT22;63667;49.046;8.468;2022-09-20T05:37:40;9.10;99.60
421;DHT22;63667;49.046;8.468;2022-09-20T05:43:34;9.30;99.60
421;DHT22;63667;49.046;8.468;2022-09-20T05:52:38;9.80;99.60
421;DHT22;63667;49.046;8.468;2022-09-20T06:00:24;10.20;99.60
421;DHT22;63667;49.046;8.468;2022-09-20T06:11:43;10.40;99.60
421;DHT22;63667;49.046;8.468;2022-09-20T06:20:24;10.80;99.60
421;DHT22;63667;49.046;8.468;2022-09-20T06:22:56;11.00;99.60
421;DHT22;63667;49.046;8.468;2022-09-20T06:28:37;11.20;99.60
421;DHT22;63667;49.046;8.468;2022-09-20T06:31:04;11.30;99.60
421;DHT22;63667;49.046;8.468;2022-09-20T06:34:04;11.30;99.60
421;DHT22;63667;49.046;8.468;2022-09-20T06:36:36;11.30;99.60
421;DHT22;63667;49.046;8.468;2022-09-20T06:39:43;11.30;99.60
421;DHT22;63667;49.046;8.468;2022-09-20T06:42:31;11.40;99.60
421;DHT22;63667;49.046;8.468;2022-09-20T06:44:59;11.50;99.60
421;DHT22;63667;49.046;8.468;2022-09-20T06:47:26;11.50;99.60
421;DHT22;63667;49.046;8.468;2022-09-20T06:49:53;11.60;99.60
421;DHT22;63667;49.046;8.468;2022-09-20T06:52:22;11.60;99.60
421;DHT22;63667;49.046;8.468;2022-09-20T06:54:51;11.60;99.60
421;DHT22;63667;49.046;8.468;2022-09-20T06:57:23;11.70;99.60
421;DHT22;63667;49.046;8.468;2022-09-20T06:59:55;11.80;99.60
421;DHT22;63667;49.046;8.468;2022-09-20T07:02:22;11.90;99.60
421;DHT22;63667;49.046;8.468;2022-09-20T07:04:50;11.80;99.60
421;DHT22;63667;49.046;8.468;2022-09-20T07:07:24;12.00;99.60
421;DHT22;63667;49.046;8.468;2022-09-20T07:09:52;12.00;99.60
421;DHT22;63667;49.046;8.468;2022-09-20T07:12:20;12.30;99.60
421;DHT22;63667;49.046;8.468;2022-09-20T07:14:48;12.40;99.60
421;DHT22;63667;49.046;8.468;2022-09-20T07:17:16;12.50;99.60
421;DHT22;63667;49.046;8.468;2022-09-20T07:19:44;12.50;99.60
421;DHT22;63667;49.046;8.468;2022-09-20T07:22:11;12.40;99.60
421;DHT22;63667;49.046;8.468;2022-09-20T07:24:39;12.30;99.60
421;DHT22;63667;49.046;8.468;2022-09-20T07:27:08;12.30;99.60
421;DHT22;63667;49.046;8.468;2022-09-20T07:29:36;12.30;99.60
421;DHT22;63667;49.046;8.468;2022-09-20T07:32:04;12.40;99.60
421;DHT22;63667;49.046;8.468;2022-09-20T07:34:32;12.50;99.60
421;DHT22;63667;49.046;8.468;2022-09-20T07:37:00;12.50;99.60
421;DHT22;63667;49.046;8.468;2022-09-20T07:39:29;12.60;99.60
421;DHT22;63667;49.046;8.468;2022-09-20T07:41:56;12.60;99.60
421;DHT22;63667;49.046;8.468;2022-09-20T07:44:24;12.80;99.60
421;DHT22;63667;49.046;8.468;2022-09-20T07:46:53;13.20;99.60
421;DHT22;63667;49.046;8.468;2022-09-20T07:49:21;13.40;99.60
421;DHT22;63667;49.046;8.468;2022-09-20T07:51:50;13.60;99.60
421;DHT22;63667;49.046;8.468;2022-09-20T07:54:18;13.50;99.60
421;DHT22;63667;49.046;8.468;2022-09-20T07:56:45;13.60;99.60
421;DHT22;63667;49.046;8.468;2022-09-20T07:59:14;13.50;99.60
421;DHT22;63667;49.046;8.468;2022-09-20T08:01:41;13.50;99.60
421;DHT22;63667;49.046;8.468;2022-09-20T08:04:10;13.40;99.60
421;DHT22;63667;49.046;8.468;2022-09-20T08:06:39;13.60;99.60
421;DHT22;63667;49.046;8.468;2022-09-20T08:09:08;14.00;99.60
421;DHT22;63667;49.046;8.468;2022-09-20T08:11:36;14.00;99.60
421;DHT22;63667;49.046;8.468;2022-09-20T08:14:05;14.10;99.60
421;DHT22;63667;49.046;8.468;2022-09-20T08:16:38;14.10;99.60
421;DHT22;63667;49.046;8.468;2022-09-20T08:19:05;14.00;99.60
421;DHT22;63667;49.046;8.468;2022-09-20T08:21:34;14.20;99.60
421;DHT22;63667;49.046;8.468;2022-09-20T08:24:03;14.30;99.60
421;DHT22;63667;49.046;8.468;2022-09-20T08:26:31;14.20;99.60
421;DHT22;63667;49.046;8.468;2022-09-20T08:29:02;14.40;99.60
421;DHT22;63667;49.046;8.468;2022-09-20T08:31:32;14.30;99.60
421;DHT22;63667;49.046;8.468;2022-09-20T08:34:03;14.40;99.60
421;DHT22;63667;49.046;8.468;2022-09-20T08:36:33;14.40;99.60
421;DHT22;63667;49.046;8.468;2022-09-20T08:39:01;14.40;99.60
421;DHT22;63667;49.046;8.468;2022-09-20T08:44:17;14.60;99.60
421;DHT22;63667;49.046;8.468;2022-09-20T08:47:08;14.90;99.60
421;DHT22;63667;49.046;8.468;2022-09-20T08:49:38;15.20;99.60
421;DHT22;63667;49.046;8.468;2022-09-20T08:52:08;15.20;99.60
421;DHT22;63667;49.046;8.468;2022-09-20T08:54:37;14.70;99.60
421;DHT22;63667;49.046;8.468;2022-09-20T08:57:26;14.60;99.60
421;DHT22;63667;49.046;8.468;2022-09-20T08:59:59;14.60;99.60
421;DHT22;63667;49.046;8.468;2022-09-20T09:02:31;14.90;99.60
421;DHT22;63667;49.046;8.468;2022-09-20T09:05:05;15.10;99.60
421;DHT22;63667;49.046;8.468;2022-09-20T09:07:38;15.40;99.60
421;DHT22;63667;49.046;8.468;2022-09-20T09:10:09;15.40;99.60
421;DHT22;63667;49.046;8.468;2022-09-20T09:12:38;15.60;99.60
421;DHT22;63667;49.046;8.468;2022-09-20T09:15:34;15.70;99.60
421;DHT22;63667;49.046;8.468;2022-09-20T09:18:04;15.70;99.60
421;DHT22;63667;49.046;8.468;2022-09-20T09:20:39;15.90;99.60
421;DHT22;63667;49.046;8.468;2022-09-20T09:23:08;16.20;99.60
421;DHT22;63667;49.046;8.468;2022-09-20T09:25:45;16.60;99.60
421;DHT22;63667;49.046;8.468;2022-09-20T09:28:13;16.70;99.60
421;DHT22;63667;49.046;8.468;2022-09-20T09:31:11;16.70;99.60
421;DHT22;63667;49.046;8.468;2022-09-20T09:33:42;16.50;99.60
421;DHT22;63667;49.046;8.468;2022-09-20T09:36:16;16.60;99.60
421;DHT22;63667;49.046;8.468;2022-09-20T09:38:48;16.90;99.60
421;DHT22;63667;49.046;8.468;2022-09-20T09:41:29;17.10;99.60
421;DHT22;63667;49.046;8.468;2022-09-20T09:43:59;17.30;99.60
421;DHT22;63667;49.046;8.468;2022-09-20T09:46:31;17.50;99.60
421;DHT22;63667;49.046;8.468;2022-09-20T09:49:38;17.60;99.60
421;DHT22;63667;49.046;8.468;2022-09-20T09:52:21;17.70;99.60
421;DHT22;63667;49.046;8.468;2022-09-20T09:54:55;17.40;99.60
421;DHT22;63667;49.046;8.468;2022-09-20T09:57:58;17.60;99.60
421;DHT22;63667;49.046;8.468;2022-09-20T10:00:49;17.60;99.60
421;DHT22;63667;49.046;8.468;2022-09-20T10:03:41;17.70;99.60
421;DHT22;63667;49.046;8.468;2022-09-20T10:06:33;18.00;99.60
421;DHT22;63667;49.046;8.468;2022-09-20T10:09:27;18.20;99.60
421;DHT22;63667;49.046;8.468;2022-09-20T10:12:20;18.50;99.60
421;DHT22;63667;49.046;8.468;2022-09-20T10:15:16;18.30;99.60
421;DHT22;63667;49.046;8.468;2022-09-20T10:23:43;18.00;99.60
421;DHT22;63667;49.046;8.468;2022-09-20T10:26:26;18.00;99.60
421;DHT22;63667;49.046;8.468;2022-09-20T10:31:48;17.90;99.60
421;DHT22;63667;49.046;8.468;2022-09-20T10:42:49;18.20;99.60
421;DHT22;63667;49.046;8.468;2022-09-20T10:51:06;19.20;99.60
421;DHT22;63667;49.046;8.468;2022-09-20T10:54:21;19.10;99.60
421;DHT22;63667;49.046;8.468;2022-09-20T11:08:27;19.70;99.60
421;DHT22;63667;49.046;8.468;2022-09-20T11:10:58;19.70;99.60
421;DHT22;63667;49.046;8.468;2022-09-20T11:13:55;19.10;99.60
421;DHT22;63667;49.046;8.468;2022-09-20T11:17:11;18.50;99.60
421;DHT22;63667;49.046;8.468;2022-09-20T11:20:15;18.10;99.60
421;DHT22;63667;49.046;8.468;2022-09-20T11:23:20;18.60;99.60
421;DHT22;63667;49.046;8.468;2022-09-20T11:25:53;19.30;99.60
421;DHT22;63667;49.046;8.468;2022-09-20T11:28:29;19.80;99.60
421;DHT22;63667;49.046;8.468;2022-09-20T11:33:42;19.00;99.60
421;DHT22;63667;49.046;8.468;2022-09-20T11:38:56;18.60;99.60
421;DHT22;63667;49.046;8.468;2022-09-20T11:41:29;18.60;99.60
421;DHT22;63667;49.046;8.468;2022-09-20T11:44:05;18.30;99.60
421;DHT22;63667;49.046;8.468;2022-09-20T11:47:09;18.00;99.60
421;DHT22;63667;49.046;8.468;2022-09-20T11:53:00;18.10;99.60
421;DHT22;63667;49.046;8.468;2022-09-20T11:58:19;18.00;99.60
421;DHT22;63667;49.046;8.468;2022-09-20T12:00:54;17.50;99.60
421;DHT22;63667;49.046;8.468;2022-09-20T12:03:32;17.50;99.60
421;DHT22;63667;49.046;8.468;2022-09-20T12:08:50;17.80;99.60
421;DHT22;63667;49.046;8.468;2022-09-20T12:11:28;18.00;99.60
421;DHT22;63667;49.046;8.468;2022-09-20T12:14:33;17.70;99.60
421;DHT22;63667;49.046;8.468;2022-09-20T12:16:57;17.80;99.60
421;DHT22;63667;49.046;8.468;2022-09-20T12:24:33;20.20;99.60
421;DHT22;63667;49.046;8.468;2022-09-20T12:30:20;20.90;99.60
421;DHT22;63667;49.046;8.468;2022-09-20T12:32:56;21.30;99.60
421;DHT22;63667;49.046;8.468;2022-09-20T12:38:29;22.00;99.60
421;DHT22;63667;49.046;8.468;2022-09-20T12:41:14;20.80;99.60
421;DHT22;63667;49.046;8.468;2022-09-20T12:44:03;21.30;99.60
421;DHT22;63667;49.046;8.468;2022-09-20T12:46:52;21.50;99.60
421;DHT22;63667;49.046;8.468;2022-09-20T12:58:47;18.60;99.60
421;DHT22;63667;49.046;8.468;2022-09-20T13:03:49;18.60;99.60
421;DHT22;63667;49.046;8.468;2022-09-20T13:11:29;18.30;99.60
421;DHT22;63667;49.046;8.468;2022-09-20T13:17:06;18.40;99.60
421;DHT22;63667;49.046;8.468;2022-09-20T13:19:46;18.60;99.60
421;DHT22;63667;49.046;8.468;2022-09-20T13:22:21;19.30;99.60
421;DHT22;63667;49.046;8.468;2022-09-20T13:24:52;19.70;99.60
421;DHT22;63667;49.046;8.468;2022-09-20T13:27:46;19.40;99.60
421;DHT22;63667;49.046;8.468;2022-09-20T13:30:17;19.90;99.60
421;DHT22;63667;49.046;8.468;2022-09-20T13:32:45;19.70;99.60
421;DHT22;63667;49.046;8.468;2022-09-20T13:35:15;19.60;99.60
421;DHT22;63667;49.046;8.468;2022-09-20T13:37:59;19.30;99.60
421;DHT22;63667;49.046;8.468;2022-09-20T13:40:38;19.00;99.60
421;DHT22;63667;49.046;8.468;2022-09-20T13:43:27;18.80;99.60
421;DHT22;63667;49.046;8.468;2022-09-20T13:45:57;19.20;99.60
421;DHT22;63667;49.046;8.468;2022-09-20T13:48:29;20.00;99.60
421;DHT22;63667;49.046;8.468;2022-09-20T13:50:57;21.20;99.60
421;DHT22;63667;49.046;8.468;2022-09-20T13:53:26;21.60;99.60
421;DHT22;63667;49.046;8.468;2022-09-20T13:55:53;22.30;99.60
421;DHT22;63667;49.046;8.468;2022-09-20T13:58:40;23.00;99.60
421;DHT22;63667;49.046;8.468;2022-09-20T14:01:30;23.70;99.60
421;DHT22;63667;49.046;8.468;2022-09-20T14:04:12;23.90;99.60
421;DHT22;63667;49.046;8.468;2022-09-20T14:06:40;24.10;99.60
421;DHT22;63667;49.046;8.468;2022-09-20T14:09:14;24.10;99.60
421;DHT22;63667;49.046;8.468;2022-09-20T14:11:44;22.90;99.60
421;DHT22;63667;49.046;8.468;2022-09-20T14:14:13;22.30;99.60
421;DHT22;63667;49.046;8.468;2022-09-20T14:16:42;21.60;99.60
421;DHT22;63667;49.046;8.468;2022-09-20T14:19:19;21.30;99.60
421;DHT22;63667;49.046;8.468;2022-09-20T14:21:48;21.10;99.60
421;DHT22;63667;49.046;8.468;2022-09-20T14:27:02;20.10;99.60
421;DHT22;63667;49.046;8.468;2022-09-20T14:29:45;20.00;99.60
421;DHT22;63667;49.046;8.468;2022-09-20T14:37:22;19.20;99.60
421;DHT22;63667;49.046;8.468;2022-09-20T14:39:55;19.20;99.60
421;DHT22;63667;49.046;8.468;2022-09-20T14:42:41;19.20;99.60
421;DHT22;63667;49.046;8.468;2022-09-20T14:45:29;19.50;99.60
421;DHT22;63667;49.046;8.468;2022-09-20T14:50:35;18.40;99.60
421;DHT22;63667;49.046;8.468;2022-09-20T14:55:39;17.80;99.60
421;DHT22;63667;49.046;8.468;2022-09-20T14:58:12;17.50;99.60
421;DHT22;63667;49.046;8.468;2022-09-20T15:00:51;18.30;99.60
421;DHT22;63667;49.046;8.468;2022-09-20T15:03:39;19.30;99.60
421;DHT22;63667;49.046;8.468;2022-09-20T15:06:12;19.60;99.60
421;DHT22;63667;49.046;8.468;2022-09-20T15:08:58;19.10;99.60
421;DHT22;63667;49.046;8.468;2022-09-20T15:11:26;19.10;99.60
421;DHT22;63667;49.046;8.468;2022-09-20T15:13:58;19.10;99.60
421;DHT22;63667;49.046;8.468;2022-09-20T15:16:26;19.20;99.60
421;DHT22;63667;49.046;8.468;2022-09-20T15:18:55;19.20;99.60
421;DHT22;63667;49.046;8.468;2022-09-20T15:21:22;19.20;99.60
421;DHT22;63667;49.046;8.468;2022-09-20T15:23:49;19.00;99.60
421;DHT22;63667;49.046;8.468;2022-09-20T15:26:19;18.80;99.60
421;DHT22;63667;49.046;8.468;2022-09-20T15:28:46;18.50;99.60
421;DHT22;63667;49.046;8.468;2022-09-20T15:31:13;18.40;99.60
421;DHT22;63667;49.046;8.468;2022-09-20T15:33:42;18.70;99.60
421;DHT22;63667;49.046;8.468;2022-09-20T15:36:10;18.80;99.60
421;DHT22;63667;49.046;8.468;2022-09-20T15:38:38;18.70;99.60
421;DHT22;63667;49.046;8.468;2022-09-20T15:41:06;18.70;99.60
421;DHT22;63667;49.046;8.468;2022-09-20T15:43:33;18.70;99.60
421;DHT22;63667;49.046;8.468;2022-09-20T15:48:43;18.80;99.60
421;DHT22;63667;49.046;8.468;2022-09-20T15:51:11;18.60;99.60
421;DHT22;63667;49.046;8.468;2022-09-20T15:54:02;18.40;99.60
421;DHT22;63667;49.046;8.468;2022-09-20T15:56:31;18.30;99.60
421;DHT22;63667;49.046;8.468;2022-09-20T15:59:04;18.30;99.60
421;DHT22;63667;49.046;8.468;2022-09-20T16:01:41;18.60;99.60
421;DHT22;63667;49.046;8.468;2022-09-20T16:04:28;18.90;99.60
421;DHT22;63667;49.046;8.468;2022-09-20T16:06:57;18.60;99.60
421;DHT22;63667;49.046;8.468;2022-09-20T16:09:25;18.50;99.60
421;DHT22;63667;49.046;8.468;2022-09-20T16:11:52;18.50;99.60
421;DHT22;63667;49.046;8.468;2022-09-20T16:14:24;18.30;99.60
421;DHT22;63667;49.046;8.468;2022-09-20T16:16:51;18.10;99.60
421;DHT22;63667;49.046;8.468;2022-09-20T16:19:19;18.10;99.60
421;DHT22;63667;49.046;8.468;2022-09-20T16:21:50;18.00;99.60
421;DHT22;63667;49.046;8.468;2022-09-20T16:24:22;17.50;99.60
421;DHT22;63667;49.046;8.468;2022-09-20T16:26:50;17.40;99.60
421;DHT22;63667;49.046;8.468;2022-09-20T16:29:18;17.30;99.60
421;DHT22;63667;49.046;8.468;2022-09-20T16:31:50;17.30;99.60
421;DHT22;63667;49.046;8.468;2022-09-20T16:34:22;17.00;99.60
421;DHT22;63667;49.046;8.468;2022-09-20T16:39:24;17.00;99.60
421;DHT22;63667;49.046;8.468;2022-09-20T16:41:57;17.10;99.60
421;DHT22;63667;49.046;8.468;2022-09-20T16:44:27;16.70;99.60
421;DHT22;63667;49.046;8.468;2022-09-20T16:46:54;16.40;99.60
421;DHT22;63667;49.046;8.468;2022-09-20T16:49:22;16.20;99.60
421;DHT22;63667;49.046;8.468;2022-09-20T16:51:52;16.30;99.60
421;DHT22;63667;49.046;8.468;2022-09-20T16:54:20;16.30;99.60
421;DHT22;63667;49.046;8.468;2022-09-20T16:56:48;16.30;99.60
421;DHT22;63667;49.046;8.468;2022-09-20T16:59:18;16.50;99.60
421;DHT22;63667;49.046;8.468;2022-09-20T17:01:47;16.30;99.60
421;DHT22;63667;49.046;8.468;2022-09-20T17:04:15;16.30;99.60
421;DHT22;63667;49.046;8.468;2022-09-20T17:06:44;16.10;99.60
421;DHT22;63667;49.046;8.468;2022-09-20T17:09:12;16.20;99.60
421;DHT22;63667;49.046;8.468;2022-09-20T17:11:44;16.10;99.60
421;DHT22;63667;49.046;8.468;2022-09-20T17:14:13;16.10;99.60
421;DHT22;63667;49.046;8.468;2022-09-20T17:16:42;16.10;99.60
421;DHT22;63667;49.046;8.468;2022-09-20T17:19:14;16.00;99.60
421;DHT22;63667;49.046;8.468;2022-09-20T17:21:47;16.00;99.60
421;DHT22;63667;49.046;8.468;2022-09-20T17:24:34;15.80;99.60
421;DHT22;63667;49.046;8.468;2022-09-20T17:27:01;15.70;99.60
421;DHT22;63667;49.046;8.468;2022-09-20T17:29:30;15.50;99.60
421;DHT22;63667;49.046;8.468;2022-09-20T17:31:57;15.50;99.60
421;DHT22;63667;49.046;8.468;2022-09-20T17:34:25;15.30;99.60
421;DHT22;63667;49.046;8.468;2022-09-20T17:36:54;15.30;99.60
421;DHT22;63667;49.046;8.468;2022-09-20T17:39:21;15.10;99.60
421;DHT22;63667;49.046;8.468;2022-09-20T17:41:49;15.00;99.60
421;DHT22;63667;49.046;8.468;2022-09-20T17:44:17;15.00;99.60
421;DHT22;63667;49.046;8.468;2022-09-20T17:46:46;14.90;99.60
421;DHT22;63667;49.046;8.468;2022-09-20T17:49:16;14.80;99.60
421;DHT22;63667;49.046;8.468;2022-09-20T17:51:46;14.70;99.60
421;DHT22;63667;49.046;8.468;2022-09-20T17:54:14;14.60;99.60
421;DHT22;63667;49.046;8.468;2022-09-20T17:56:46;14.60;99.60
421;DHT22;63667;49.046;8.468;2022-09-20T17:59:18;14.50;99.60
421;DHT22;63667;49.046;8.468;2022-09-20T18:01:47;14.40;99.60
421;DHT22;63667;49.046;8.468;2022-09-20T18:04:15;14.40;99.60
421;DHT22;63667;49.046;8.468;2022-09-20T18:06:47;14.30;99.60
421;DHT22;63667;49.046;8.468;2022-09-20T18:09:18;14.20;99.60
421;DHT22;63667;49.046;8.468;2022-09-20T18:11:51;14.10;99.60
421;DHT22;63667;49.046;8.468;2022-09-20T18:14:20;14.10;99.60
421;DHT22;63667;49.046;8.468;2022-09-20T18:16:51;14.00;99.60
421;DHT22;63667;49.046;8.468;2022-09-20T18:19:19;13.90;99.60
421;DHT22;63667;49.046;8.468;2022-09-20T18:21:48;13.90;99.60
421;DHT22;63667;49.046;8.468;2022-09-20T18:24:16;13.90;99.60
421;DHT22;63667;49.046;8.468;2022-09-20T18:26:43;13.80;99.60
421;DHT22;63667;49.046;8.468;2022-09-20T18:29:12;13.70;99.60
421;DHT22;63667;49.046;8.468;2022-09-20T18:31:41;13.60;99.60
421;DHT22;63667;49.046;8.468;2022-09-20T18:34:11;13.70;99.60
421;DHT22;63667;49.046;8.468;2022-09-20T18:36:41;13.70;99.60
421;DHT22;63667;49.046;8.468;2022-09-20T18:39:09;13.70;99.60
421;DHT22;63667;49.046;8.468;2022-09-20T18:41:37;13.40;99.60
421;DHT22;63667;49.046;8.468;2022-09-20T18:44:10;13.30;99.60
421;DHT22;63667;49.046;8.468;2022-09-20T18:46:40;13.40;99.60
421;DHT22;63667;49.046;8.468;2022-09-20T18:49:10;13.30;99.60
421;DHT22;63667;49.046;8.468;2022-09-20T18:51:39;13.30;99.60
421;DHT22;63667;49.046;8.468;2022-09-20T18:54:07;13.20;99.60
421;DHT22;63667;49.046;8.468;2022-09-20T18:56:55;13.10;99.60
421;DHT22;63667;49.046;8.468;2022-09-20T18:59:25;13.10;99.60
421;DHT22;63667;49.046;8.468;2022-09-20T19:04:53;12.90;99.60
421;DHT22;63667;49.046;8.468;2022-09-20T19:10:19;12.90;99.60
421;DHT22;63667;49.046;8.468;2022-09-20T19:20:58;13.10;99.60
421;DHT22;63667;49.046;8.468;2022-09-20T19:26:45;13.10;99.60
421;DHT22;63667;49.046;8.468;2022-09-20T19:29:25;12.80;99.60
421;DHT22;63667;49.046;8.468;2022-09-20T19:31:57;12.80;99.60
421;DHT22;63667;49.046;8.468;2022-09-20T19:34:30;12.70;99.60
421;DHT22;63667;49.046;8.468;2022-09-20T19:46:11;12.40;99.60
421;DHT22;63667;49.046;8.468;2022-09-20T19:51:36;12.60;99.60
421;DHT22;63667;49.046;8.468;2022-09-20T19:54:06;12.60;99.60
421;DHT22;63667;49.046;8.468;2022-09-20T19:56:45;12.50;99.60
421;DHT22;63667;49.046;8.468;2022-09-20T19:59:16;12.60;99.60
421;DHT22;63667;49.046;8.468;2022-09-20T20:01:43;12.70;99.60
421;DHT22;63667;49.046;8.468;2022-09-20T20:04:11;12.70;99.60
421;DHT22;63667;49.046;8.468;2022-09-20T20:10:17;12.70;99.60
421;DHT22;63667;49.046;8.468;2022-09-20T20:18:24;12.90;99.60
421;DHT22;63667;49.046;8.468;2022-09-20T20:20:57;13.00;99.60
421;DHT22;63667;49.046;8.468;2022-09-20T20:26:21;12.90;99.60
421;DHT22;63667;49.046;8.468;2022-09-20T20:28:49;13.00;99.60
421;DHT22;63667;49.046;8.468;2022-09-20T20:31:21;12.90;99.60
421;DHT22;63667;49.046;8.468;2022-09-20T20:33:48;12.80;99.60
421;DHT22;63667;49.046;8.468;2022-09-20T20:36:16;12.70;99.60
421;DHT22;63667;49.046;8.468;2022-09-20T20:38:43;12.70;99.60
421;DHT22;63667;49.046;8.468;2022-09-20T20:41:17;12.60;99.60
421;DHT22;63667;49.046;8.468;2022-09-20T20:43:44;12.50;99.60
421;DHT22;63667;49.046;8.468;2022-09-20T20:46:16;12.40;99.60
421;DHT22;63667;49.046;8.468;2022-09-20T20:48:44;12.30;99.60
421;DHT22;63667;49.046;8.468;2022-09-20T20:51:17;12.00;99.60
421;DHT22;63667;49.046;8.468;2022-09-20T20:53:49;11.90;99.60
421;DHT22;63667;49.046;8.468;2022-09-20T20:56:27;11.70;99.60
421;DHT22;63667;49.046;8.468;2022-09-20T20:58:54;11.60;99.60
421;DHT22;63667;49.046;8.468;2022-09-20T21:03:55;11.50;99.60
421;DHT22;63667;49.046;8.468;2022-09-20T21:06:25;11.50;99.60
421;DHT22;63667;49.046;8.468;2022-09-20T21:08:52;11.50;99.60
421;DHT22;63667;49.046;8.468;2022-09-20T21:11:22;11.50;99.60
421;DHT22;63667;49.046;8.468;2022-09-20T21:13:51;11.30;99.60
421;DHT22;63667;49.046;8.468;2022-09-20T21:16:20;11.30;99.60
421;DHT22;63667;49.046;8.468;2022-09-20T21:18:49;11.30;99.60
421;DHT22;63667;49.046;8.468;2022-09-20T21:21:33;11.20;99.60
421;DHT22;63667;49.046;8.468;2022-09-20T21:24:02;11.10;99.60
421;DHT22;63667;49.046;8.468;2022-09-20T21:26:30;11.00;99.60
421;DHT22;63667;49.046;8.468;2022-09-20T21:29:05;11.10;99.60
421;DHT22;63667;49.046;8.468;2022-09-20T21:31:35;11.10;99.60
421;DHT22;63667;49.046;8.468;2022-09-20T21:34:06;11.10;99.60
421;DHT22;63667;49.046;8.468;2022-09-20T21:36:34;11.00;99.60
421;DHT22;63667;49.046;8.468;2022-09-20T21:39:03;11.00;99.60
421;DHT22;63667;49.046;8.468;2022-09-20T21:41:31;10.80;99.60
421;DHT22;63667;49.046;8.468;2022-09-20T21:43:59;10.80;99.60
421;DHT22;63667;49.046;8.468;2022-09-20T21:46:33;10.50;99.60
421;DHT22;63667;49.046;8.468;2022-09-20T21:49:02;10.50;99.60
421;DHT22;63667;49.046;8.468;2022-09-20T21:51:33;10.50;99.60
421;DHT22;63667;49.046;8.468;2022-09-20T21:54:04;10.50;99.60
421;DHT22;63667;49.046;8.468;2022-09-20T21:56:37;10.50;99.60
421;DHT22;63667;49.046;8.468;2022-09-20T21:59:04;10.40;99.60
421;DHT22;63667;49.046;8.468;2022-09-20T22:01:35;10.40;99.60
421;DHT22;63667;49.046;8.468;2022-09-20T22:04:24;10.20;99.60
421;DHT22;63667;49.046;8.468;2022-09-20T22:06:54;10.10;99.60
421;DHT22;63667;49.046;8.468;2022-09-20T22:09:22;10.00;99.60
421;DHT22;63667;49.046;8.468;2022-09-20T22:11:51;10.10;99.60
421;DHT22;63667;49.046;8.468;2022-09-20T22:14:18;10.20;99.60
421;DHT22;63667;49.046;8.468;2022-09-20T22:16:47;10.20;99.60
421;DHT22;63667;49.046;8.468;2022-09-20T22:19:16;10.20;99.60